sensor_id;sensor_type;location;lat;lon;timestamp;P1;durP1;ratioP1;P2;durP2;ratioP2
51382;SDS011;37475;43.358;1.248;2022-12-19T00:01:10;13.98;;;5.40;;
51382;SDS011;37475;43.358;1.248;2022-12-19T00:03:42;11.38;;;5.68;;
51382;SDS011;37475;43.358;1.248;2022-12-19T00:06:17;11.23;;;5.43;;
51382;SDS011;37475;43.358;1.248;2022-12-19T00:08:44;16.05;;;5.65;;
51382;SDS011;37475;43.358;1.248;2022-12-19T00:11:14;13.93;;;5.68;;
51382;SDS011;37475;43.358;1.248;2022-12-19T00:13:42;13.23;;;5.13;;
51382;SDS011;37475;43.358;1.248;2022-12-19T00:16:12;12.30;;;5.32;;
51382;SDS011;37475;43.358;1.248;2022-12-19T00:18:46;11.85;;;5.22;;
51382;SDS011;37475;43.358;1.248;2022-12-19T00:21:15;11.13;;;5.53;;
51382;SDS011;37475;43.358;1.248;2022-12-19T00:23:44;13.57;;;5.47;;
51382;SDS011;37475;43.358;1.248;2022-12-19T00:26:18;14.20;;;5.70;;
51382;SDS011;37475;43.358;1.248;2022-12-19T00:28:51;11.30;;;4.90;;
51382;SDS011;37475;43.358;1.248;2022-12-19T00:31:23;14.65;;;5.82;;
51382;SDS011;37475;43.358;1.248;2022-12-19T00:33:51;13.30;;;5.32;;
51382;SDS011;37475;43.358;1.248;2022-12-19T00:36:21;13.57;;;5.53;;
51382;SDS011;37475;43.358;1.248;2022-12-19T00:38:54;14.18;;;5.60;;
51382;SDS011;37475;43.358;1.248;2022-12-19T00:41:29;15.15;;;5.72;;
51382;SDS011;37475;43.358;1.248;2022-12-19T00:43:58;16.80;;;5.75;;
51382;SDS011;37475;43.358;1.248;2022-12-19T00:46:27;11.15;;;4.88;;
51382;SDS011;37475;43.358;1.248;2022-12-19T00:48:55;15.95;;;5.07;;
51382;SDS011;37475;43.358;1.248;2022-12-19T00:51:22;16.88;;;5.57;;
51382;SDS011;37475;43.358;1.248;2022-12-19T00:53:52;12.73;;;5.05;;
51382;SDS011;37475;43.358;1.248;2022-12-19T00:56:20;10.35;;;5.03;;
51382;SDS011;37475;43.358;1.248;2022-12-19T00:58:57;15.13;;;5.95;;
51382;SDS011;37475;43.358;1.248;2022-12-19T01:03:53;14.90;;;6.20;;
51382;SDS011;37475;43.358;1.248;2022-12-19T01:06:22;12.00;;;5.30;;
51382;SDS011;37475;43.358;1.248;2022-12-19T01:08:48;14.55;;;5.60;;
51382;SDS011;37475;43.358;1.248;2022-12-19T01:11:14;12.10;;;5.80;;
51382;SDS011;37475;43.358;1.248;2022-12-19T01:13:40;11.48;;;5.75;;
51382;SDS011;37475;43.358;1.248;2022-12-19T01:16:10;14.50;;;5.72;;
51382;SDS011;37475;43.358;1.248;2022-12-19T01:18:38;14.13;;;6.07;;
51382;SDS011;37475;43.358;1.248;2022-12-19T01:21:05;14.55;;;5.75;;
51382;SDS011;37475;43.358;1.248;2022-12-19T01:23:34;10.73;;;5.68;;
51382;SDS011;37475;43.358;1.248;2022-12-19T01:26:00;14.68;;;6.22;;
51382;SDS011;37475;43.358;1.248;2022-12-19T01:28:26;14.80;;;5.93;;
51382;SDS011;37475;43.358;1.248;2022-12-19T01:30:52;12.10;;;6.03;;
51382;SDS011;37475;43.358;1.248;2022-12-19T01:33:21;12.38;;;6.32;;
51382;SDS011;37475;43.358;1.248;2022-12-19T01:35:46;10.75;;;6.45;;
51382;SDS011;37475;43.358;1.248;2022-12-19T01:38:13;13.90;;;6.63;;
51382;SDS011;37475;43.358;1.248;2022-12-19T01:40:51;18.92;;;7.00;;
51382;SDS011;37475;43.358;1.248;2022-12-19T01:43:20;13.25;;;6.30;;
51382;SDS011;37475;43.358;1.248;2022-12-19T01:45:48;13.18;;;6.63;;
51382;SDS011;37475;43.358;1.248;2022-12-19T01:48:32;10.23;;;6.25;;
51382;SDS011;37475;43.358;1.248;2022-12-19T01:51:03;12.40;;;6.47;;
51382;SDS011;37475;43.358;1.248;2022-12-19T01:53:37;15.57;;;6.72;;
51382;SDS011;37475;43.358;1.248;2022-12-19T01:56:15;14.50;;;6.20;;
51382;SDS011;37475;43.358;1.248;2022-12-19T01:58:47;15.57;;;6.30;;
51382;SDS011;37475;43.358;1.248;2022-12-19T02:01:15;13.07;;;6.45;;
51382;SDS011;37475;43.358;1.248;2022-12-19T02:03:42;15.98;;;6.68;;
51382;SDS011;37475;43.358;1.248;2022-12-19T02:06:09;12.73;;;5.93;;
51382;SDS011;37475;43.358;1.248;2022-12-19T02:08:40;15.85;;;6.18;;
51382;SDS011;37475;43.358;1.248;2022-12-19T02:11:08;11.07;;;5.88;;
51382;SDS011;37475;43.358;1.248;2022-12-19T02:13:34;15.07;;;6.32;;
51382;SDS011;37475;43.358;1.248;2022-12-19T02:22:16;12.25;;;5.88;;
51382;SDS011;37475;43.358;1.248;2022-12-19T02:28:46;13.77;;;6.65;;
51382;SDS011;37475;43.358;1.248;2022-12-19T02:31:25;12.73;;;6.05;;
51382;SDS011;37475;43.358;1.248;2022-12-19T02:36:39;12.52;;;5.70;;
51382;SDS011;37475;43.358;1.248;2022-12-19T02:39:23;11.02;;;5.63;;
51382;SDS011;37475;43.358;1.248;2022-12-19T02:41:57;17.30;;;6.05;;
51382;SDS011;37475;43.358;1.248;2022-12-19T02:44:32;9.85;;;5.63;;
51382;SDS011;37475;43.358;1.248;2022-12-19T02:47:03;14.73;;;6.00;;
51382;SDS011;37475;43.358;1.248;2022-12-19T02:49:34;15.13;;;5.90;;
51382;SDS011;37475;43.358;1.248;2022-12-19T02:52:09;14.27;;;6.00;;
51382;SDS011;37475;43.358;1.248;2022-12-19T02:54:44;13.20;;;6.05;;
51382;SDS011;37475;43.358;1.248;2022-12-19T03:00:05;13.73;;;6.63;;
51382;SDS011;37475;43.358;1.248;2022-12-19T03:02:59;13.75;;;6.00;;
51382;SDS011;37475;43.358;1.248;2022-12-19T03:06:10;12.55;;;5.70;;
51382;SDS011;37475;43.358;1.248;2022-12-19T03:09:02;15.55;;;6.15;;
51382;SDS011;37475;43.358;1.248;2022-12-19T03:11:40;9.90;;;5.88;;
51382;SDS011;37475;43.358;1.248;2022-12-19T03:14:08;13.18;;;5.72;;
51382;SDS011;37475;43.358;1.248;2022-12-19T03:16:38;14.98;;;5.88;;
51382;SDS011;37475;43.358;1.248;2022-12-19T03:19:09;13.85;;;5.88;;
51382;SDS011;37475;43.358;1.248;2022-12-19T03:21:39;12.65;;;6.13;;
51382;SDS011;37475;43.358;1.248;2022-12-19T03:24:09;14.95;;;6.05;;
51382;SDS011;37475;43.358;1.248;2022-12-19T03:26:40;14.25;;;5.85;;
51382;SDS011;37475;43.358;1.248;2022-12-19T03:31:46;14.93;;;6.35;;
51382;SDS011;37475;43.358;1.248;2022-12-19T03:34:15;10.63;;;5.70;;
51382;SDS011;37475;43.358;1.248;2022-12-19T03:36:56;11.73;;;6.65;;
51382;SDS011;37475;43.358;1.248;2022-12-19T03:39:26;14.20;;;6.07;;
51382;SDS011;37475;43.358;1.248;2022-12-19T03:41:55;15.55;;;5.85;;
51382;SDS011;37475;43.358;1.248;2022-12-19T03:44:42;14.73;;;5.80;;
51382;SDS011;37475;43.358;1.248;2022-12-19T03:47:16;10.07;;;6.10;;
51382;SDS011;37475;43.358;1.248;2022-12-19T03:49:52;17.67;;;6.82;;
51382;SDS011;37475;43.358;1.248;2022-12-19T03:55:14;13.55;;;6.72;;
51382;SDS011;37475;43.358;1.248;2022-12-19T03:58:07;17.67;;;6.30;;
51382;SDS011;37475;43.358;1.248;2022-12-19T04:00:39;14.65;;;6.82;;
51382;SDS011;37475;43.358;1.248;2022-12-19T04:03:11;11.65;;;6.43;;
51382;SDS011;37475;43.358;1.248;2022-12-19T04:05:40;14.60;;;6.45;;
51382;SDS011;37475;43.358;1.248;2022-12-19T04:08:07;12.93;;;5.85;;
51382;SDS011;37475;43.358;1.248;2022-12-19T04:10:37;16.13;;;7.10;;
51382;SDS011;37475;43.358;1.248;2022-12-19T04:13:43;12.90;;;6.45;;
51382;SDS011;37475;43.358;1.248;2022-12-19T04:16:31;13.70;;;6.80;;
51382;SDS011;37475;43.358;1.248;2022-12-19T04:21:48;11.23;;;6.35;;
51382;SDS011;37475;43.358;1.248;2022-12-19T04:24:24;11.57;;;6.13;;
51382;SDS011;37475;43.358;1.248;2022-12-19T04:26:58;12.43;;;6.60;;
51382;SDS011;37475;43.358;1.248;2022-12-19T04:29:26;12.90;;;6.68;;
51382;SDS011;37475;43.358;1.248;2022-12-19T04:31:55;14.13;;;6.38;;
51382;SDS011;37475;43.358;1.248;2022-12-19T04:34:21;12.13;;;5.90;;
51382;SDS011;37475;43.358;1.248;2022-12-19T04:36:47;11.10;;;6.25;;
51382;SDS011;37475;43.358;1.248;2022-12-19T04:39:14;13.82;;;6.72;;
51382;SDS011;37475;43.358;1.248;2022-12-19T04:41:40;11.63;;;6.13;;
51382;SDS011;37475;43.358;1.248;2022-12-19T04:44:06;11.38;;;5.68;;
51382;SDS011;37475;43.358;1.248;2022-12-19T04:46:32;13.55;;;6.30;;
51382;SDS011;37475;43.358;1.248;2022-12-19T04:48:58;11.70;;;5.85;;
51382;SDS011;37475;43.358;1.248;2022-12-19T04:51:23;13.60;;;6.63;;
51382;SDS011;37475;43.358;1.248;2022-12-19T04:53:49;11.38;;;6.13;;
51382;SDS011;37475;43.358;1.248;2022-12-19T04:56:15;10.23;;;5.95;;
51382;SDS011;37475;43.358;1.248;2022-12-19T04:58:41;13.25;;;5.78;;
51382;SDS011;37475;43.358;1.248;2022-12-19T05:01:07;11.15;;;6.30;;
51382;SDS011;37475;43.358;1.248;2022-12-19T05:03:33;11.75;;;6.45;;
51382;SDS011;37475;43.358;1.248;2022-12-19T05:06:04;12.55;;;6.00;;
51382;SDS011;37475;43.358;1.248;2022-12-19T05:08:38;9.88;;;5.80;;
51382;SDS011;37475;43.358;1.248;2022-12-19T05:11:07;11.77;;;5.50;;
51382;SDS011;37475;43.358;1.248;2022-12-19T05:13:34;12.35;;;5.78;;
51382;SDS011;37475;43.358;1.248;2022-12-19T05:16:01;11.25;;;5.85;;
51382;SDS011;37475;43.358;1.248;2022-12-19T05:18:30;12.45;;;5.70;;
51382;SDS011;37475;43.358;1.248;2022-12-19T05:20:56;10.65;;;5.13;;
51382;SDS011;37475;43.358;1.248;2022-12-19T05:23:22;11.90;;;5.70;;
51382;SDS011;37475;43.358;1.248;2022-12-19T05:25:49;10.98;;;5.57;;
51382;SDS011;37475;43.358;1.248;2022-12-19T05:28:15;13.73;;;5.88;;
51382;SDS011;37475;43.358;1.248;2022-12-19T05:30:43;12.73;;;5.85;;
51382;SDS011;37475;43.358;1.248;2022-12-19T05:33:10;13.48;;;5.60;;
51382;SDS011;37475;43.358;1.248;2022-12-19T05:35:36;11.60;;;5.35;;
51382;SDS011;37475;43.358;1.248;2022-12-19T05:38:02;13.00;;;5.43;;
51382;SDS011;37475;43.358;1.248;2022-12-19T05:40:29;10.55;;;5.20;;
51382;SDS011;37475;43.358;1.248;2022-12-19T05:42:54;10.15;;;4.80;;
51382;SDS011;37475;43.358;1.248;2022-12-19T05:45:20;15.07;;;6.57;;
51382;SDS011;37475;43.358;1.248;2022-12-19T05:47:47;10.63;;;5.07;;
51382;SDS011;37475;43.358;1.248;2022-12-19T05:50:13;11.65;;;5.15;;
51382;SDS011;37475;43.358;1.248;2022-12-19T05:52:41;10.32;;;5.43;;
51382;SDS011;37475;43.358;1.248;2022-12-19T05:55:07;10.38;;;5.20;;
51382;SDS011;37475;43.358;1.248;2022-12-19T05:57:34;14.43;;;5.10;;
51382;SDS011;37475;43.358;1.248;2022-12-19T06:00:01;12.13;;;5.35;;
51382;SDS011;37475;43.358;1.248;2022-12-19T06:02:32;13.07;;;5.45;;
51382;SDS011;37475;43.358;1.248;2022-12-19T06:04:58;11.80;;;5.20;;
51382;SDS011;37475;43.358;1.248;2022-12-19T06:07:24;15.85;;;5.25;;
51382;SDS011;37475;43.358;1.248;2022-12-19T06:09:49;10.77;;;4.78;;
51382;SDS011;37475;43.358;1.248;2022-12-19T06:12:15;14.73;;;5.68;;
51382;SDS011;37475;43.358;1.248;2022-12-19T06:14:41;13.68;;;4.95;;
51382;SDS011;37475;43.358;1.248;2022-12-19T06:17:07;11.98;;;4.93;;
51382;SDS011;37475;43.358;1.248;2022-12-19T06:19:33;10.63;;;4.75;;
51382;SDS011;37475;43.358;1.248;2022-12-19T06:21:58;14.57;;;4.43;;
51382;SDS011;37475;43.358;1.248;2022-12-19T06:24:24;8.88;;;4.65;;
51382;SDS011;37475;43.358;1.248;2022-12-19T06:26:50;10.10;;;5.45;;
51382;SDS011;37475;43.358;1.248;2022-12-19T06:29:16;10.73;;;4.53;;
51382;SDS011;37475;43.358;1.248;2022-12-19T06:31:42;10.95;;;4.70;;
51382;SDS011;37475;43.358;1.248;2022-12-19T06:34:08;9.52;;;4.70;;
51382;SDS011;37475;43.358;1.248;2022-12-19T06:36:35;10.63;;;4.78;;
51382;SDS011;37475;43.358;1.248;2022-12-19T06:39:08;8.50;;;4.50;;
51382;SDS011;37475;43.358;1.248;2022-12-19T06:41:38;10.02;;;5.03;;
51382;SDS011;37475;43.358;1.248;2022-12-19T06:44:22;12.60;;;4.70;;
51382;SDS011;37475;43.358;1.248;2022-12-19T06:46:48;8.93;;;4.93;;
51382;SDS011;37475;43.358;1.248;2022-12-19T06:49:15;10.02;;;4.82;;
51382;SDS011;37475;43.358;1.248;2022-12-19T06:51:41;11.45;;;4.72;;
51382;SDS011;37475;43.358;1.248;2022-12-19T06:54:08;9.88;;;4.53;;
51382;SDS011;37475;43.358;1.248;2022-12-19T06:56:39;9.93;;;5.15;;
51382;SDS011;37475;43.358;1.248;2022-12-19T06:59:06;11.10;;;4.90;;
51382;SDS011;37475;43.358;1.248;2022-12-19T07:04:55;11.77;;;4.90;;
51382;SDS011;37475;43.358;1.248;2022-12-19T07:07:26;8.90;;;4.35;;
51382;SDS011;37475;43.358;1.248;2022-12-19T07:09:53;8.25;;;4.20;;
51382;SDS011;37475;43.358;1.248;2022-12-19T07:12:19;11.40;;;4.65;;
51382;SDS011;37475;43.358;1.248;2022-12-19T07:14:45;13.85;;;4.68;;
51382;SDS011;37475;43.358;1.248;2022-12-19T07:17:11;10.43;;;4.50;;
51382;SDS011;37475;43.358;1.248;2022-12-19T07:19:37;9.27;;;4.32;;
51382;SDS011;37475;43.358;1.248;2022-12-19T07:22:03;9.38;;;3.80;;
51382;SDS011;37475;43.358;1.248;2022-12-19T07:24:30;9.95;;;4.25;;
51382;SDS011;37475;43.358;1.248;2022-12-19T07:26:57;12.80;;;4.63;;
51382;SDS011;37475;43.358;1.248;2022-12-19T07:29:22;10.32;;;4.40;;
51382;SDS011;37475;43.358;1.248;2022-12-19T07:31:48;7.22;;;4.32;;
51382;SDS011;37475;43.358;1.248;2022-12-19T07:34:14;7.90;;;3.55;;
51382;SDS011;37475;43.358;1.248;2022-12-19T07:36:40;9.57;;;3.78;;
51382;SDS011;37475;43.358;1.248;2022-12-19T07:39:06;11.75;;;4.45;;
51382;SDS011;37475;43.358;1.248;2022-12-19T07:41:34;11.93;;;4.60;;
51382;SDS011;37475;43.358;1.248;2022-12-19T07:44:02;10.43;;;4.30;;
51382;SDS011;37475;43.358;1.248;2022-12-19T07:46:28;9.38;;;4.50;;
51382;SDS011;37475;43.358;1.248;2022-12-19T07:48:54;8.52;;;3.65;;
51382;SDS011;37475;43.358;1.248;2022-12-19T07:51:22;10.95;;;4.50;;
51382;SDS011;37475;43.358;1.248;2022-12-19T07:53:48;12.93;;;3.92;;
51382;SDS011;37475;43.358;1.248;2022-12-19T07:56:14;8.73;;;4.07;;
51382;SDS011;37475;43.358;1.248;2022-12-19T07:58:41;9.10;;;4.07;;
51382;SDS011;37475;43.358;1.248;2022-12-19T08:01:08;8.70;;;4.28;;
51382;SDS011;37475;43.358;1.248;2022-12-19T08:03:36;9.20;;;4.40;;
51382;SDS011;37475;43.358;1.248;2022-12-19T08:06:02;8.90;;;4.35;;
51382;SDS011;37475;43.358;1.248;2022-12-19T08:08:30;8.30;;;4.22;;
51382;SDS011;37475;43.358;1.248;2022-12-19T08:11:10;10.00;;;4.38;;
51382;SDS011;37475;43.358;1.248;2022-12-19T08:13:41;8.32;;;4.03;;
51382;SDS011;37475;43.358;1.248;2022-12-19T08:16:07;10.25;;;4.15;;
51382;SDS011;37475;43.358;1.248;2022-12-19T08:18:34;7.10;;;3.90;;
51382;SDS011;37475;43.358;1.248;2022-12-19T08:21:00;10.30;;;4.07;;
51382;SDS011;37475;43.358;1.248;2022-12-19T08:23:26;9.73;;;4.22;;
51382;SDS011;37475;43.358;1.248;2022-12-19T08:26:02;9.57;;;4.10;;
51382;SDS011;37475;43.358;1.248;2022-12-19T08:28:35;7.47;;;3.72;;
51382;SDS011;37475;43.358;1.248;2022-12-19T08:31:05;12.73;;;4.25;;
51382;SDS011;37475;43.358;1.248;2022-12-19T08:33:32;9.25;;;4.35;;
51382;SDS011;37475;43.358;1.248;2022-12-19T08:36:02;10.13;;;4.10;;
51382;SDS011;37475;43.358;1.248;2022-12-19T08:38:37;12.75;;;4.38;;
51382;SDS011;37475;43.358;1.248;2022-12-19T08:41:06;9.02;;;3.90;;
51382;SDS011;37475;43.358;1.248;2022-12-19T08:43:33;8.25;;;4.05;;
51382;SDS011;37475;43.358;1.248;2022-12-19T08:45:59;9.02;;;3.67;;
51382;SDS011;37475;43.358;1.248;2022-12-19T08:48:25;9.32;;;4.40;;
51382;SDS011;37475;43.358;1.248;2022-12-19T08:50:59;9.20;;;4.05;;
51382;SDS011;37475;43.358;1.248;2022-12-19T08:53:28;9.73;;;4.25;;
51382;SDS011;37475;43.358;1.248;2022-12-19T08:55:58;10.52;;;4.07;;
51382;SDS011;37475;43.358;1.248;2022-12-19T08:58:32;10.65;;;3.90;;
51382;SDS011;37475;43.358;1.248;2022-12-19T09:00:59;7.40;;;3.75;;
51382;SDS011;37475;43.358;1.248;2022-12-19T09:03:29;10.38;;;4.10;;
51382;SDS011;37475;43.358;1.248;2022-12-19T09:05:59;13.68;;;4.10;;
51382;SDS011;37475;43.358;1.248;2022-12-19T09:08:28;10.27;;;4.43;;
51382;SDS011;37475;43.358;1.248;2022-12-19T09:10:58;11.32;;;3.78;;
51382;SDS011;37475;43.358;1.248;2022-12-19T09:13:33;12.40;;;3.95;;
51382;SDS011;37475;43.358;1.248;2022-12-19T09:18:34;8.88;;;3.78;;
51382;SDS011;37475;43.358;1.248;2022-12-19T09:21:01;9.15;;;4.15;;
51382;SDS011;37475;43.358;1.248;2022-12-19T09:23:27;9.73;;;3.83;;
51382;SDS011;37475;43.358;1.248;2022-12-19T09:25:56;8.65;;;3.60;;
51382;SDS011;37475;43.358;1.248;2022-12-19T09:28:33;8.48;;;3.70;;
51382;SDS011;37475;43.358;1.248;2022-12-19T09:31:05;9.52;;;3.72;;
51382;SDS011;37475;43.358;1.248;2022-12-19T09:33:42;11.13;;;3.83;;
51382;SDS011;37475;43.358;1.248;2022-12-19T09:36:12;7.63;;;3.53;;
51382;SDS011;37475;43.358;1.248;2022-12-19T09:38:40;11.60;;;3.53;;
51382;SDS011;37475;43.358;1.248;2022-12-19T09:44:12;10.00;;;3.53;;
51382;SDS011;37475;43.358;1.248;2022-12-19T09:46:58;8.23;;;3.17;;
51382;SDS011;37475;43.358;1.248;2022-12-19T09:49:40;9.15;;;3.45;;
51382;SDS011;37475;43.358;1.248;2022-12-19T09:57:39;11.07;;;3.63;;
51382;SDS011;37475;43.358;1.248;2022-12-19T10:00:44;11.27;;;3.40;;
51382;SDS011;37475;43.358;1.248;2022-12-19T10:08:45;9.20;;;3.50;;
51382;SDS011;37475;43.358;1.248;2022-12-19T10:14:01;14.02;;;3.13;;
51382;SDS011;37475;43.358;1.248;2022-12-19T10:19:33;8.77;;;3.30;;
51382;SDS011;37475;43.358;1.248;2022-12-19T10:22:33;7.30;;;3.00;;
51382;SDS011;37475;43.358;1.248;2022-12-19T10:25:28;10.00;;;3.28;;
51382;SDS011;37475;43.358;1.248;2022-12-19T10:33:57;10.50;;;3.20;;
51382;SDS011;37475;43.358;1.248;2022-12-19T10:37:07;8.75;;;2.80;;
51382;SDS011;37475;43.358;1.248;2022-12-19T10:39:59;8.55;;;2.70;;
51382;SDS011;37475;43.358;1.248;2022-12-19T10:45:27;7.97;;;2.80;;
51382;SDS011;37475;43.358;1.248;2022-12-19T10:48:07;9.45;;;2.78;;
51382;SDS011;37475;43.358;1.248;2022-12-19T10:50:44;10.77;;;2.80;;
51382;SDS011;37475;43.358;1.248;2022-12-19T10:53:10;11.02;;;3.22;;
51382;SDS011;37475;43.358;1.248;2022-12-19T11:00:58;7.32;;;2.50;;
51382;SDS011;37475;43.358;1.248;2022-12-19T11:03:48;6.40;;;2.35;;
51382;SDS011;37475;43.358;1.248;2022-12-19T11:12:08;7.07;;;2.60;;
51382;SDS011;37475;43.358;1.248;2022-12-19T11:17:23;7.28;;;2.78;;
51382;SDS011;37475;43.358;1.248;2022-12-19T11:19:58;6.50;;;2.25;;
51382;SDS011;37475;43.358;1.248;2022-12-19T11:22:36;5.28;;;2.22;;
51382;SDS011;37475;43.358;1.248;2022-12-19T11:25:02;9.63;;;2.35;;
51382;SDS011;37475;43.358;1.248;2022-12-19T11:27:30;6.38;;;2.35;;
51382;SDS011;37475;43.358;1.248;2022-12-19T11:30:25;8.27;;;2.40;;
51382;SDS011;37475;43.358;1.248;2022-12-19T11:33:07;7.43;;;2.40;;
51382;SDS011;37475;43.358;1.248;2022-12-19T11:35:49;6.25;;;2.00;;
51382;SDS011;37475;43.358;1.248;2022-12-19T11:38:35;7.90;;;2.38;;
51382;SDS011;37475;43.358;1.248;2022-12-19T11:41:22;5.13;;;2.08;;
51382;SDS011;37475;43.358;1.248;2022-12-19T11:44:21;9.13;;;2.10;;
51382;SDS011;37475;43.358;1.248;2022-12-19T11:50:20;7.22;;;2.38;;
51382;SDS011;37475;43.358;1.248;2022-12-19T11:53:08;6.35;;;2.45;;
51382;SDS011;37475;43.358;1.248;2022-12-19T11:56:07;7.03;;;2.17;;
51382;SDS011;37475;43.358;1.248;2022-12-19T11:58:41;6.63;;;2.22;;
51382;SDS011;37475;43.358;1.248;2022-12-19T12:06:56;5.38;;;2.03;;
51382;SDS011;37475;43.358;1.248;2022-12-19T12:09:27;6.88;;;2.10;;
51382;SDS011;37475;43.358;1.248;2022-12-19T12:21:10;6.32;;;2.25;;
51382;SDS011;37475;43.358;1.248;2022-12-19T12:30:15;4.93;;;2.10;;
51382;SDS011;37475;43.358;1.248;2022-12-19T12:35:35;7.43;;;2.50;;
51382;SDS011;37475;43.358;1.248;2022-12-19T12:46:31;9.38;;;2.35;;
51382;SDS011;37475;43.358;1.248;2022-12-19T12:49:04;5.40;;;2.08;;
51382;SDS011;37475;43.358;1.248;2022-12-19T12:54:13;10.15;;;2.45;;
51382;SDS011;37475;43.358;1.248;2022-12-19T12:56:41;7.97;;;2.70;;
51382;SDS011;37475;43.358;1.248;2022-12-19T13:01:51;8.80;;;2.58;;
51382;SDS011;37475;43.358;1.248;2022-12-19T13:04:25;6.57;;;2.60;;
51382;SDS011;37475;43.358;1.248;2022-12-19T13:15:38;7.32;;;2.90;;
51382;SDS011;37475;43.358;1.248;2022-12-19T13:20:58;8.65;;;3.00;;
51382;SDS011;37475;43.358;1.248;2022-12-19T13:23:40;7.47;;;2.65;;
51382;SDS011;37475;43.358;1.248;2022-12-19T13:26:20;10.13;;;2.65;;
51382;SDS011;37475;43.358;1.248;2022-12-19T13:29:31;11.60;;;2.88;;
51382;SDS011;37475;43.358;1.248;2022-12-19T13:32:15;12.80;;;3.00;;
51382;SDS011;37475;43.358;1.248;2022-12-19T13:34:55;10.38;;;2.88;;
51382;SDS011;37475;43.358;1.248;2022-12-19T13:37:26;10.18;;;3.15;;
51382;SDS011;37475;43.358;1.248;2022-12-19T13:42:22;9.75;;;3.17;;
51382;SDS011;37475;43.358;1.248;2022-12-19T13:45:23;11.07;;;3.25;;
51382;SDS011;37475;43.358;1.248;2022-12-19T13:47:53;9.93;;;3.10;;
51382;SDS011;37475;43.358;1.248;2022-12-19T13:52:55;9.43;;;3.40;;
51382;SDS011;37475;43.358;1.248;2022-12-19T13:55:22;10.45;;;3.40;;
51382;SDS011;37475;43.358;1.248;2022-12-19T13:57:51;9.38;;;3.28;;
51382;SDS011;37475;43.358;1.248;2022-12-19T14:00:32;10.48;;;2.88;;
51382;SDS011;37475;43.358;1.248;2022-12-19T14:03:01;9.13;;;2.80;;
51382;SDS011;37475;43.358;1.248;2022-12-19T14:05:35;8.27;;;2.55;;
51382;SDS011;37475;43.358;1.248;2022-12-19T14:08:02;7.40;;;2.55;;
51382;SDS011;37475;43.358;1.248;2022-12-19T14:10:31;8.27;;;2.80;;
51382;SDS011;37475;43.358;1.248;2022-12-19T14:13:04;11.30;;;2.85;;
51382;SDS011;37475;43.358;1.248;2022-12-19T14:15:56;9.48;;;2.60;;
51382;SDS011;37475;43.358;1.248;2022-12-19T14:21:06;9.75;;;2.75;;
51382;SDS011;37475;43.358;1.248;2022-12-19T14:23:41;13.57;;;2.85;;
51382;SDS011;37475;43.358;1.248;2022-12-19T14:26:09;11.25;;;2.80;;
51382;SDS011;37475;43.358;1.248;2022-12-19T14:29:03;14.55;;;2.75;;
51382;SDS011;37475;43.358;1.248;2022-12-19T14:31:36;13.27;;;3.70;;
51382;SDS011;37475;43.358;1.248;2022-12-19T14:34:04;16.23;;;3.47;;
51382;SDS011;37475;43.358;1.248;2022-12-19T14:36:31;14.13;;;3.50;;
51382;SDS011;37475;43.358;1.248;2022-12-19T14:38:58;11.05;;;3.20;;
51382;SDS011;37475;43.358;1.248;2022-12-19T14:44:12;7.68;;;2.95;;
51382;SDS011;37475;43.358;1.248;2022-12-19T14:47:31;8.00;;;2.75;;
51382;SDS011;37475;43.358;1.248;2022-12-19T14:49:43;12.65;;;3.17;;
51382;SDS011;37475;43.358;1.248;2022-12-19T14:55:11;11.38;;;2.92;;
51382;SDS011;37475;43.358;1.248;2022-12-19T14:58:05;15.38;;;3.22;;
51382;SDS011;37475;43.358;1.248;2022-12-19T15:00:45;10.82;;;3.45;;
51382;SDS011;37475;43.358;1.248;2022-12-19T15:03:22;9.18;;;2.55;;
51382;SDS011;37475;43.358;1.248;2022-12-19T15:05:51;13.73;;;2.80;;
51382;SDS011;37475;43.358;1.248;2022-12-19T15:08:28;8.88;;;3.25;;
51382;SDS011;37475;43.358;1.248;2022-12-19T15:10:59;9.38;;;3.10;;
51382;SDS011;37475;43.358;1.248;2022-12-19T15:14:05;11.38;;;2.95;;
51382;SDS011;37475;43.358;1.248;2022-12-19T15:16:31;13.93;;;3.85;;
51382;SDS011;37475;43.358;1.248;2022-12-19T15:18:59;14.70;;;3.28;;
51382;SDS011;37475;43.358;1.248;2022-12-19T15:21:27;11.15;;;4.00;;
51382;SDS011;37475;43.358;1.248;2022-12-19T15:23:54;12.43;;;3.90;;
51382;SDS011;37475;43.358;1.248;2022-12-19T15:26:28;12.48;;;3.92;;
51382;SDS011;37475;43.358;1.248;2022-12-19T15:28:58;12.32;;;3.53;;
51382;SDS011;37475;43.358;1.248;2022-12-19T15:33:59;19.15;;;4.95;;
51382;SDS011;37475;43.358;1.248;2022-12-19T15:36:46;13.57;;;3.63;;
51382;SDS011;37475;43.358;1.248;2022-12-19T15:39:12;11.88;;;3.85;;
51382;SDS011;37475;43.358;1.248;2022-12-19T15:41:45;12.93;;;3.45;;
51382;SDS011;37475;43.358;1.248;2022-12-19T15:44:19;8.82;;;3.05;;
51382;SDS011;37475;43.358;1.248;2022-12-19T15:47:06;17.63;;;3.88;;
51382;SDS011;37475;43.358;1.248;2022-12-19T15:49:41;10.65;;;3.35;;
51382;SDS011;37475;43.358;1.248;2022-12-19T15:52:12;15.57;;;3.72;;
51382;SDS011;37475;43.358;1.248;2022-12-19T15:54:44;11.55;;;3.63;;
51382;SDS011;37475;43.358;1.248;2022-12-19T15:57:23;12.52;;;3.22;;
51382;SDS011;37475;43.358;1.248;2022-12-19T15:59:52;11.10;;;3.20;;
51382;SDS011;37475;43.358;1.248;2022-12-19T16:02:21;15.32;;;3.85;;
51382;SDS011;37475;43.358;1.248;2022-12-19T16:04:49;11.57;;;3.50;;
51382;SDS011;37475;43.358;1.248;2022-12-19T16:07:17;15.13;;;3.45;;
51382;SDS011;37475;43.358;1.248;2022-12-19T16:09:45;14.38;;;3.35;;
51382;SDS011;37475;43.358;1.248;2022-12-19T16:12:13;14.07;;;3.45;;
51382;SDS011;37475;43.358;1.248;2022-12-19T16:14:43;9.82;;;2.92;;
51382;SDS011;37475;43.358;1.248;2022-12-19T16:17:14;13.48;;;3.40;;
51382;SDS011;37475;43.358;1.248;2022-12-19T16:19:45;12.73;;;3.63;;
51382;SDS011;37475;43.358;1.248;2022-12-19T16:22:18;9.88;;;3.30;;
51382;SDS011;37475;43.358;1.248;2022-12-19T16:24:51;17.38;;;4.03;;
51382;SDS011;37475;43.358;1.248;2022-12-19T16:27:19;12.93;;;3.70;;
51382;SDS011;37475;43.358;1.248;2022-12-19T16:29:52;13.85;;;3.55;;
51382;SDS011;37475;43.358;1.248;2022-12-19T16:32:19;13.13;;;3.50;;
51382;SDS011;37475;43.358;1.248;2022-12-19T16:34:49;13.48;;;3.42;;
51382;SDS011;37475;43.358;1.248;2022-12-19T16:37:16;12.45;;;3.40;;
51382;SDS011;37475;43.358;1.248;2022-12-19T16:39:42;14.02;;;3.33;;
51382;SDS011;37475;43.358;1.248;2022-12-19T16:42:12;19.88;;;3.72;;
51382;SDS011;37475;43.358;1.248;2022-12-19T16:44:42;13.10;;;3.15;;
51382;SDS011;37475;43.358;1.248;2022-12-19T16:47:13;14.82;;;3.80;;
51382;SDS011;37475;43.358;1.248;2022-12-19T16:49:41;16.95;;;4.10;;
51382;SDS011;37475;43.358;1.248;2022-12-19T16:52:08;12.13;;;3.47;;
51382;SDS011;37475;43.358;1.248;2022-12-19T16:54:34;16.38;;;3.60;;
51382;SDS011;37475;43.358;1.248;2022-12-19T16:57:00;16.65;;;3.70;;
51382;SDS011;37475;43.358;1.248;2022-12-19T16:59:39;15.73;;;3.95;;
51382;SDS011;37475;43.358;1.248;2022-12-19T17:02:14;15.18;;;3.65;;
51382;SDS011;37475;43.358;1.248;2022-12-19T17:05:15;11.02;;;3.28;;
51382;SDS011;37475;43.358;1.248;2022-12-19T17:07:50;17.10;;;3.60;;
51382;SDS011;37475;43.358;1.248;2022-12-19T17:10:18;12.52;;;3.20;;
51382;SDS011;37475;43.358;1.248;2022-12-19T17:12:46;18.15;;;4.10;;
51382;SDS011;37475;43.358;1.248;2022-12-19T17:15:26;18.83;;;3.83;;
51382;SDS011;37475;43.358;1.248;2022-12-19T17:17:58;15.75;;;3.67;;
51382;SDS011;37475;43.358;1.248;2022-12-19T17:20:30;16.52;;;3.80;;
51382;SDS011;37475;43.358;1.248;2022-12-19T17:23:01;16.45;;;4.47;;
51382;SDS011;37475;43.358;1.248;2022-12-19T17:25:40;15.60;;;3.97;;
51382;SDS011;37475;43.358;1.248;2022-12-19T17:28:06;21.23;;;4.30;;
51382;SDS011;37475;43.358;1.248;2022-12-19T17:30:32;16.73;;;4.18;;